Time;durP1;ratioP1;P1;durP2;ratioP2;P2;SDS_P1;SDS_P2;PMS_P1;PMS_P2;Temp;Humidity;BMP_temperature;BMP_pressure;BME280_temperature;BME280_humidity;BME280_pressure;Samples;Min_cycle;Max_cycle;Signal;HPM_P1;HPM_P2
2022/12/26 00:03:59;;;;;;;5.03;3.00;;;;;;;;;;8269249;28;20557;-76
2022/12/26 00:07:59;;;;;;;6.00;3.20;;;;;;;;;;8268077;28;20087;-77
2022/12/26 00:11:59;;;;;;;6.57;3.10;;;;;;;;;;8271306;28;20256;-76
2022/12/26 00:16:04;;;;;;;3.22;2.72;;;;;;;;;;8269692;28;20040;-76
2022/12/26 00:20:04;;;;;;;3.30;2.85;;;;;;;;;;8270726;28;20079;-77
2022/12/26 00:24:05;;;;;;;3.67;2.85;;;;;;;;;;8270024;28;20041;-76
2022/12/26 00:28:05;;;;;;;4.82;3.25;;;;;;;;;;8268541;28;20010;-76
2022/12/26 00:32:05;;;;;;;6.05;3.00;;;;;;;;;;8269447;28;20033;-76
2022/12/26 00:36:07;;;;;;;3.60;2.92;;;;;;;;;;8269884;28;20054;-76
2022/12/26 00:40:08;;;;;;;5.45;2.92;;;;;;;;;;8271810;28;20025;-76
2022/12/26 00:44:08;;;;;;;5.95;2.83;;;;;;;;;;8271292;28;20342;-76
2022/12/26 00:48:08;;;;;;;5.68;3.17;;;;;;;;;;8269950;28;20026;-76
2022/12/26 00:52:08;;;;;;;4.22;2.90;;;;;;;;;;8267615;28;20025;-76
2022/12/26 00:56:09;;;;;;;4.38;2.83;;;;;;;;;;8267543;28;20025;-76
2022/12/26 01:00:10;;;;;;;4.65;2.42;;;;;;;;;;8267912;28;20025;-76
2022/12/26 01:04:10;;;;;;;4.00;2.65;;;;;;;;;;8267354;28;20117;-76
2022/12/26 01:08:10;;;;;;;3.92;3.00;;;;;;;;;;8267189;28;20110;-77
2022/12/26 01:12:11;;;;;;;2.97;2.53;;;;;;;;;;8267179;28;20063;-76
2022/12/26 01:16:11;;;;;;;6.32;2.70;;;;;;;;;;8269552;28;20041;-76
2022/12/26 01:20:11;;;;;;;8.07;2.90;;;;;;;;;;8278085;28;21016;-76
2022/12/26 01:24:12;;;;;;;2.90;2.60;;;;;;;;;;8269584;28;20737;-76
2022/12/26 01:28:12;;;;;;;5.53;2.75;;;;;;;;;;8267547;28;20017;-76
2022/12/26 01:32:13;;;;;;;5.22;2.65;;;;;;;;;;8267964;28;20498;-76
2022/12/26 01:36:14;;;;;;;4.40;2.67;;;;;;;;;;8284889;28;20026;-76
2022/12/26 01:40:14;;;;;;;2.25;2.05;;;;;;;;;;8269741;28;20272;-76
2022/12/26 01:44:33;;;;;;;3.88;2.80;;;;;;;;;;8266287;28;20042;-76
2022/12/26 01:48:34;;;;;;;2.50;2.30;;;;;;;;;;8269115;28;20128;-76
2022/12/26 01:52:36;;;;;;;3.63;2.72;;;;;;;;;;8271969;28;20108;-76
2022/12/26 01:56:38;;;;;;;8.85;2.85;;;;;;;;;;8265832;28;20052;-76
2022/12/26 02:00:38;;;;;;;5.00;2.38;;;;;;;;;;8266458;28;20387;-76
2022/12/26 02:09:01;;;;;;;4.85;2.70;;;;;;;;;;8268639;28;20116;-76
2022/12/26 02:13:02;;;;;;;4.78;2.55;;;;;;;;;;8266722;28;20613;-76
2022/12/26 02:17:02;;;;;;;5.35;2.60;;;;;;;;;;8267428;28;20124;-76
2022/12/26 02:21:19;;;;;;;10.02;3.05;;;;;;;;;;8271883;28;20088;-76
2022/12/26 02:25:22;;;;;;;3.10;2.75;;;;;;;;;;8273186;28;20029;-76
2022/12/26 02:29:22;;;;;;;4.63;2.90;;;;;;;;;;8276302;28;20025;-76
2022/12/26 02:33:41;;;;;;;5.28;2.80;;;;;;;;;;8274400;28;20041;-76
2022/12/26 02:37:47;;;;;;;5.60;2.55;;;;;;;;;;8273223;28;20712;-77
2022/12/26 02:41:57;;;;;;;3.88;2.30;;;;;;;;;;8274751;28;20173;-76
2022/12/26 03:17:18;;;;;;;4.70;2.40;;;;;;;;;;8270809;28;20091;-76
2022/12/26 03:21:21;;;;;;;5.15;2.45;;;;;;;;;;8289821;28;20025;-76
2022/12/26 03:34:18;;;;;;;5.00;2.92;;;;;;;;;;8271672;28;20120;-76
2022/12/26 03:38:20;;;;;;;4.53;2.70;;;;;;;;;;8271384;28;20029;-76
2022/12/26 04:44:54;;;;;;;4.80;2.50;;;;;;;;;;8269119;28;20841;-75
2022/12/26 04:53:13;;;;;;;5.47;2.80;;;;;;;;;;8272595;28;20043;-76
2022/12/26 04:57:14;;;;;;;3.38;2.38;;;;;;;;;;8269932;28;20105;-76
2022/12/26 05:09:54;;;;;;;3.33;2.47;;;;;;;;;;8269052;28;20028;-77
2022/12/26 05:13:55;;;;;;;2.45;2.20;;;;;;;;;;8284698;28;20061;-76
2022/12/26 05:30:51;;;;;;;3.20;2.35;;;;;;;;;;8268715;28;20045;-76
2022/12/26 05:34:51;;;;;;;5.22;2.45;;;;;;;;;;8268117;28;20034;-76
2022/12/26 05:38:52;;;;;;;2.83;2.00;;;;;;;;;;8270033;28;20093;-76
2022/12/26 05:42:52;;;;;;;2.30;2.10;;;;;;;;;;8269695;28;20025;-76
2022/12/26 05:46:52;;;;;;;5.45;2.38;;;;;;;;;;8269441;28;20040;-76
2022/12/26 05:50:56;;;;;;;4.90;2.25;;;;;;;;;;8269333;28;20022;-76
2022/12/26 05:54:56;;;;;;;5.28;2.47;;;;;;;;;;8271465;28;20033;-76
2022/12/26 05:58:58;;;;;;;3.95;2.40;;;;;;;;;;8273938;28;20077;-76
2022/12/26 06:02:58;;;;;;;3.35;2.60;;;;;;;;;;8282254;28;20042;-76
2022/12/26 06:06:58;;;;;;;5.35;2.20;;;;;;;;;;8275086;28;20034;-76
2022/12/26 06:11:01;;;;;;;5.13;2.65;;;;;;;;;;8276342;28;20039;-76
2022/12/26 06:15:02;;;;;;;3.85;2.20;;;;;;;;;;8275144;28;20136;-76
2022/12/26 06:19:02;;;;;;;8.27;2.55;;;;;;;;;;8283910;28;20065;-76
2022/12/26 06:23:02;;;;;;;4.35;2.30;;;;;;;;;;8289636;28;20018;-76
2022/12/26 06:27:02;;;;;;;3.45;2.05;;;;;;;;;;8275050;28;20022;-76
2022/12/26 06:31:04;;;;;;;6.63;2.70;;;;;;;;;;8275105;28;20223;-77
2022/12/26 06:35:04;;;;;;;4.18;2.30;;;;;;;;;;8274506;28;20022;-75
2022/12/26 06:39:05;;;;;;;3.75;2.42;;;;;;;;;;8273676;28;20034;-76
2022/12/26 06:43:05;;;;;;;4.03;2.07;;;;;;;;;;8274995;28;20021;-76
2022/12/26 06:47:05;;;;;;;3.97;2.22;;;;;;;;;;8289443;28;20034;-77
2022/12/26 06:51:06;;;;;;;4.18;2.08;;;;;;;;;;8275543;28;20025;-76
2022/12/26 06:55:08;;;;;;;3.08;2.10;;;;;;;;;;8272877;28;20036;-76
2022/12/26 06:59:09;;;;;;;2.95;2.17;;;;;;;;;;8275132;28;20036;-75
2022/12/26 07:03:10;;;;;;;3.45;2.28;;;;;;;;;;8274942;28;20033;-76
2022/12/26 07:07:10;;;;;;;8.13;2.87;;;;;;;;;;8274921;28;20021;-76
2022/12/26 07:11:15;;;;;;;3.47;2.25;;;;;;;;;;8276301;28;20034;-76
2022/12/26 07:15:16;;;;;;;3.83;2.50;;;;;;;;;;8274212;28;20526;-76
2022/12/26 07:19:16;;;;;;;4.97;2.60;;;;;;;;;;8274619;28;20488;-76
2022/12/26 07:23:16;;;;;;;5.10;2.67;;;;;;;;;;8271372;28;20033;-76
2022/12/26 07:27:16;;;;;;;4.45;2.80;;;;;;;;;;8269236;28;20108;-75
2022/12/26 07:31:17;;;;;;;3.97;2.83;;;;;;;;;;8271815;28;20052;-77
2022/12/26 07:35:18;;;;;;;4.70;2.60;;;;;;;;;;8269130;28;20705;-76
2022/12/26 07:39:18;;;;;;;6.78;2.80;;;;;;;;;;8272919;28;20037;-76
2022/12/26 07:43:18;;;;;;;3.47;2.22;;;;;;;;;;8273750;28;20048;-76
2022/12/26 07:47:18;;;;;;;4.07;2.30;;;;;;;;;;8271423;28;20764;-76
2022/12/26 07:51:18;;;;;;;4.05;2.60;;;;;;;;;;8271781;28;20040;-76
2022/12/26 07:55:19;;;;;;;3.25;2.88;;;;;;;;;;8270123;28;20042;-77
2022/12/26 07:59:21;;;;;;;5.03;2.55;;;;;;;;;;8272204;28;20025;-77
2022/12/26 08:03:21;;;;;;;3.45;2.70;;;;;;;;;;8277811;28;20150;-77
2022/12/26 08:07:22;;;;;;;3.35;2.80;;;;;;;;;;8270907;28;20091;-77
2022/12/26 08:11:22;;;;;;;3.95;2.30;;;;;;;;;;8270582;28;20033;-76
2022/12/26 08:15:22;;;;;;;3.72;2.47;;;;;;;;;;8272041;28;20049;-76
2022/12/26 08:19:23;;;;;;;2.42;2.00;;;;;;;;;;8271716;28;20065;-77
2022/12/26 08:23:23;;;;;;;3.30;2.00;;;;;;;;;;8269779;28;20061;-76
2022/12/26 08:27:23;;;;;;;2.65;2.30;;;;;;;;;;8285370;28;20733;-76
2022/12/26 08:31:23;;;;;;;2.28;2.03;;;;;;;;;;8269809;28;20061;-77
2022/12/26 08:35:24;;;;;;;3.63;2.10;;;;;;;;;;8270514;28;20029;-77
2022/12/26 08:39:24;;;;;;;2.42;1.90;;;;;;;;;;8272039;28;20105;-77
2022/12/26 08:43:24;;;;;;;3.03;2.03;;;;;;;;;;8271750;28;20643;-76
2022/12/26 08:47:26;;;;;;;4.03;1.70;;;;;;;;;;8267857;28;20105;-77
2022/12/26 08:51:26;;;;;;;1.60;1.50;;;;;;;;;;8270694;28;20082;-76
2022/12/26 08:55:28;;;;;;;2.88;1.70;;;;;;;;;;8269503;28;20947;-76
2022/12/26 08:59:28;;;;;;;2.30;1.80;;;;;;;;;;8273315;28;20128;-76
2022/12/26 09:03:28;;;;;;;2.47;1.50;;;;;;;;;;8270547;28;20038;-77
2022/12/26 09:07:29;;;;;;;3.38;1.58;;;;;;;;;;8270348;28;20037;-76
2022/12/26 09:11:29;;;;;;;2.20;1.50;;;;;;;;;;8271473;28;20033;-76
2022/12/26 09:15:29;;;;;;;2.63;1.98;;;;;;;;;;8278297;28;20038;-76
2022/12/26 09:19:31;;;;;;;2.43;1.63;;;;;;;;;;8271241;28;20641;-76
2022/12/26 09:23:31;;;;;;;1.92;1.73;;;;;;;;;;8276752;28;20025;-77
2022/12/26 09:27:31;;;;;;;3.78;1.65;;;;;;;;;;8293884;28;20118;-76
2022/12/26 09:31:33;;;;;;;3.10;1.75;;;;;;;;;;8269865;28;20037;-76
2022/12/26 09:35:33;;;;;;;5.53;1.50;;;;;;;;;;8273515;28;20556;-74
2022/12/26 09:39:33;;;;;;;1.63;1.50;;;;;;;;;;8296706;28;20021;-76
2022/12/26 09:43:39;;;;;;;2.65;1.50;;;;;;;;;;8278706;28;20746;-74
2022/12/26 09:47:50;;;;;;;2.65;1.67;;;;;;;;;;8282085;28;20659;-76
2022/12/26 09:51:53;;;;;;;3.38;1.73;;;;;;;;;;8293393;28;20037;-75
2022/12/26 09:56:02;;;;;;;2.33;1.40;;;;;;;;;;8315678;28;20656;-74
2022/12/26 10:00:04;;;;;;;2.88;1.40;;;;;;;;;;8271030;28;20987;-76
2022/12/26 10:04:09;;;;;;;2.35;1.30;;;;;;;;;;8268292;28;20815;-76
2022/12/26 10:08:12;;;;;;;2.17;1.35;;;;;;;;;;8268865;28;20087;-75
2022/12/26 10:12:12;;;;;;;1.90;1.50;;;;;;;;;;8267411;28;21223;-75
2022/12/26 10:16:13;;;;;;;1.85;1.40;;;;;;;;;;8267927;28;20042;-74
2022/12/26 10:20:25;;;;;;;1.88;1.50;;;;;;;;;;8271070;28;20496;-75
2022/12/26 10:24:27;;;;;;;3.83;1.45;;;;;;;;;;8277216;28;20480;-75
2022/12/26 10:28:39;;;;;;;3.50;1.52;;;;;;;;;;8270010;28;20946;-75
2022/12/26 10:32:42;;;;;;;1.73;1.60;;;;;;;;;;8267228;28;20244;-75
2022/12/26 10:36:50;;;;;;;1.92;1.55;;;;;;;;;;8267731;28;20040;-75
2022/12/26 10:40:52;;;;;;;2.03;1.30;;;;;;;;;;8270438;28;20026;-74
2022/12/26 10:44:53;;;;;;;5.07;2.00;;;;;;;;;;8271945;28;20116;-75
2022/12/26 10:48:53;;;;;;;1.95;1.52;;;;;;;;;;8274842;28;20037;-75
2022/12/26 10:52:53;;;;;;;2.42;1.63;;;;;;;;;;8276471;28;20037;-75
2022/12/26 10:56:54;;;;;;;2.08;1.40;;;;;;;;;;8273275;28;20506;-75
2022/12/26 11:00:55;;;;;;;2.33;1.38;;;;;;;;;;8279357;28;20041;-75
2022/12/26 11:04:58;;;;;;;2.35;1.50;;;;;;;;;;8286610;28;20032;-76
2022/12/26 11:08:59;;;;;;;2.35;1.42;;;;;;;;;;8278529;28;20033;-76
2022/12/26 11:13:01;;;;;;;3.47;1.27;;;;;;;;;;8274746;28;20068;-76
2022/12/26 11:17:03;;;;;;;3.90;1.50;;;;;;;;;;8271120;28;20152;-76
2022/12/26 11:21:11;;;;;;;1.50;1.40;;;;;;;;;;8272012;28;20025;-75
2022/12/26 11:25:13;;;;;;;2.78;1.42;;;;;;;;;;8276173;28;20830;-76
2022/12/26 11:29:15;;;;;;;2.90;1.27;;;;;;;;;;8274019;28;20021;-77
2022/12/26 11:33:29;;;;;;;2.90;1.10;;;;;;;;;;8272018;28;20042;-74
2022/12/26 11:37:33;;;;;;;2.33;1.30;;;;;;;;;;8268556;28;20119;-72
2022/12/26 11:41:42;;;;;;;2.87;1.60;;;;;;;;;;8268183;28;20029;-72
2022/12/26 11:45:48;;;;;;;1.75;1.40;;;;;;;;;;8271577;28;20025;-75
2022/12/26 11:50:03;;;;;;;2.03;1.20;;;;;;;;;;8272916;28;20037;-75
2022/12/26 11:54:24;;;;;;;1.27;1.23;;;;;;;;;;8270280;28;20026;-75
2022/12/26 11:58:28;;;;;;;2.85;1.60;;;;;;;;;;8271022;28;20049;-75
2022/12/26 12:02:29;;;;;;;2.42;1.33;;;;;;;;;;8269453;28;20549;-76
2022/12/26 12:07:05;;;;;;;1.58;1.48;;;;;;;;;;8268508;28;20972;-75
2022/12/26 12:11:06;;;;;;;1.60;1.40;;;;;;;;;;8213500;28;20139;-76
2022/12/26 12:15:21;;;;;;;1.73;1.60;;;;;;;;;;8268059;28;20026;-76
2022/12/26 12:19:40;;;;;;;1.75;1.27;;;;;;;;;;8271647;28;20072;-76
2022/12/26 12:23:47;;;;;;;4.95;1.60;;;;;;;;;;8269885;28;20092;-76
2022/12/26 12:28:05;;;;;;;4.75;1.30;;;;;;;;;;8269836;28;20865;-76
2022/12/26 12:32:08;;;;;;;2.10;1.20;;;;;;;;;;8269337;28;20065;-76
2022/12/26 12:36:10;;;;;;;2.05;1.70;;;;;;;;;;8270713;28;20815;-76
2022/12/26 12:40:29;;;;;;;2.72;1.90;;;;;;;;;;8268234;28;20033;-76
2022/12/26 12:44:42;;;;;;;2.05;1.50;;;;;;;;;;8271769;28;20029;-76
2022/12/26 12:49:02;;;;;;;4.28;1.88;;;;;;;;;;8285496;28;20106;-77
2022/12/26 12:53:21;;;;;;;4.10;1.40;;;;;;;;;;8271287;28;20057;-76
2022/12/26 12:57:24;;;;;;;2.15;1.20;;;;;;;;;;8270303;28;20018;-76
2022/12/26 13:01:37;;;;;;;3.35;1.35;;;;;;;;;;8270875;28;20465;-77
2022/12/26 13:05:46;;;;;;;1.77;1.33;;;;;;;;;;8270336;28;20029;-76
2022/12/26 13:09:48;;;;;;;2.88;1.50;;;;;;;;;;8270660;28;20589;-75
2022/12/26 13:13:59;;;;;;;3.75;1.50;;;;;;;;;;8280634;28;20079;-76
2022/12/26 13:18:06;;;;;;;2.22;1.25;;;;;;;;;;8269857;28;20995;-76
2022/12/26 13:22:13;;;;;;;1.80;1.17;;;;;;;;;;8270608;28;20025;-76
2022/12/26 13:26:16;;;;;;;2.60;1.20;;;;;;;;;;8275184;28;20029;-76
2022/12/26 13:30:17;;;;;;;2.22;1.30;;;;;;;;;;8272384;28;20021;-76
2022/12/26 13:34:18;;;;;;;3.75;1.63;;;;;;;;;;8270702;28;20163;-76
2022/12/26 13:38:20;;;;;;;1.98;1.17;;;;;;;;;;8270751;28;20108;-76
2022/12/26 13:46:53;;;;;;;2.05;1.08;;;;;;;;;;8268187;28;20057;-75
2022/12/26 13:50:55;;;;;;;1.95;1.10;;;;;;;;;;8269925;28;20065;-76
2022/12/26 13:54:56;;;;;;;1.48;1.00;;;;;;;;;;8277197;28;20091;-75
2022/12/26 13:59:08;;;;;;;2.45;1.00;;;;;;;;;;8269479;28;20032;-76
2022/12/26 14:03:09;;;;;;;6.68;1.10;;;;;;;;;;8268179;28;20099;-76
2022/12/26 14:07:16;;;;;;;7.50;1.15;;;;;;;;;;8268315;28;20021;-76
2022/12/26 14:11:41;;;;;;;2.03;1.23;;;;;;;;;;8269054;28;20032;-76
2022/12/26 14:15:55;;;;;;;1.73;1.17;;;;;;;;;;8275139;28;20498;-76
2022/12/26 14:20:01;;;;;;;3.30;1.20;;;;;;;;;;8277630;28;20033;-76
2022/12/26 14:24:20;;;;;;;2.80;1.00;;;;;;;;;;8282950;28;20338;-76
2022/12/26 14:28:23;;;;;;;1.63;0.88;;;;;;;;;;8275846;28;20037;-76
2022/12/26 14:32:41;;;;;;;3.97;0.90;;;;;;;;;;8277882;28;20814;-76
2022/12/26 14:36:48;;;;;;;3.17;1.00;;;;;;;;;;8276165;28;20022;-75
2022/12/26 14:41:06;;;;;;;2.70;1.05;;;;;;;;;;8288505;28;20029;-77
2022/12/26 14:45:12;;;;;;;1.13;0.80;;;;;;;;;;8278639;28;20026;-77
2022/12/26 14:49:35;;;;;;;2.85;1.00;;;;;;;;;;8265993;28;20060;-75
2022/12/26 14:53:37;;;;;;;4.40;1.10;;;;;;;;;;8269781;28;20034;-76
2022/12/26 14:57:42;;;;;;;2.65;1.13;;;;;;;;;;8272567;28;20139;-76
2022/12/26 15:01:46;;;;;;;2.47;1.20;;;;;;;;;;8277626;28;20088;-76
2022/12/26 15:05:48;;;;;;;2.75;1.20;;;;;;;;;;8274120;28;20078;-76
2022/12/26 15:09:51;;;;;;;1.75;1.05;;;;;;;;;;8281185;28;20071;-75
2022/12/26 15:14:10;;;;;;;1.63;0.98;;;;;;;;;;8272278;28;20098;-76
2022/12/26 15:18:17;;;;;;;2.45;1.25;;;;;;;;;;8269727;28;20605;-76
2022/12/26 15:22:20;;;;;;;2.42;1.25;;;;;;;;;;8277444;28;20585;-76
2022/12/26 15:26:38;;;;;;;4.50;1.10;;;;;;;;;;8277622;28;20014;-77
2022/12/26 15:30:45;;;;;;;3.75;1.10;;;;;;;;;;8274619;28;20303;-77
2022/12/26 15:34:53;;;;;;;1.98;1.20;;;;;;;;;;8269835;28;20395;-76
2022/12/26 15:39:07;;;;;;;4.38;1.33;;;;;;;;;;8270612;28;20411;-77
2022/12/26 15:43:23;;;;;;;2.67;1.42;;;;;;;;;;8269523;28;20030;-76
2022/12/26 15:47:46;;;;;;;2.60;1.60;;;;;;;;;;8265180;28;20073;-77
2022/12/26 15:51:55;;;;;;;1.90;1.23;;;;;;;;;;8259841;28;20030;-77
2022/12/26 15:56:06;;;;;;;1.30;0.88;;;;;;;;;;8269126;28;20029;-77
2022/12/26 16:00:19;;;;;;;1.05;0.90;;;;;;;;;;8270671;28;20041;-76
2022/12/26 16:04:29;;;;;;;3.10;1.10;;;;;;;;;;8271212;28;20045;-76
2022/12/26 16:08:36;;;;;;;3.03;0.80;;;;;;;;;;8270889;28;20144;-76
2022/12/26 16:12:38;;;;;;;1.77;0.90;;;;;;;;;;8269568;28;20033;-77
2022/12/26 16:16:38;;;;;;;0.73;0.60;;;;;;;;;;8266247;28;20046;-77
2022/12/26 16:24:58;;;;;;;0.57;0.50;;;;;;;;;;8268935;28;20288;-76
2022/12/26 16:28:59;;;;;;;2.10;0.80;;;;;;;;;;8266017;28;20056;-76
2022/12/26 16:33:00;;;;;;;0.98;0.70;;;;;;;;;;8271862;28;20042;-76
2022/12/26 16:37:00;;;;;;;1.83;0.52;;;;;;;;;;8268898;28;20024;-76
2022/12/26 16:41:03;;;;;;;1.90;0.70;;;;;;;;;;8278198;28;20380;-76
2022/12/26 16:45:04;;;;;;;2.92;0.60;;;;;;;;;;8269570;28;20021;-77
2022/12/26 16:49:04;;;;;;;0.95;0.75;;;;;;;;;;8267622;28;20021;-76
2022/12/26 16:53:07;;;;;;;0.50;0.50;;;;;;;;;;8268709;28;20100;-77
2022/12/26 16:57:11;;;;;;;2.60;0.80;;;;;;;;;;8267024;28;20368;-77
2022/12/26 17:01:13;;;;;;;1.33;0.80;;;;;;;;;;8268504;28;20029;-77
2022/12/26 17:05:21;;;;;;;2.28;0.63;;;;;;;;;;8268490;28;20026;-77
2022/12/26 17:09:22;;;;;;;0.75;0.50;;;;;;;;;;8270313;28;20026;-77
2022/12/26 17:13:24;;;;;;;0.70;0.70;;;;;;;;;;8268031;28;20034;-77
2022/12/26 17:17:29;;;;;;;0.60;0.60;;;;;;;;;;8268301;28;20845;-77
2022/12/26 17:21:31;;;;;;;1.17;0.60;;;;;;;;;;8265527;28;20084;-76
2022/12/26 17:25:32;;;;;;;1.23;0.70;;;;;;;;;;8266569;28;20037;-77
2022/12/26 17:29:47;;;;;;;0.60;0.60;;;;;;;;;;8268663;28;20042;-77
2022/12/26 17:33:49;;;;;;;1.40;0.60;;;;;;;;;;8266623;28;20042;-76
2022/12/26 17:37:50;;;;;;;0.95;0.73;;;;;;;;;;8266871;28;20461;-76
2022/12/26 17:41:55;;;;;;;2.40;0.68;;;;;;;;;;8267168;28;20037;-76
2022/12/26 17:45:55;;;;;;;0.50;0.50;;;;;;;;;;8265482;28;20030;-77
2022/12/26 17:49:56;;;;;;;2.15;0.70;;;;;;;;;;8271334;28;20029;-78
2022/12/26 17:53:56;;;;;;;0.50;0.50;;;;;;;;;;8273805;28;20061;-76
2022/12/26 17:57:56;;;;;;;0.55;0.40;;;;;;;;;;8272956;28;20045;-76
2022/12/26 18:01:56;;;;;;;1.88;0.60;;;;;;;;;;8273502;28;20038;-77
2022/12/26 18:05:57;;;;;;;1.47;1.30;;;;;;;;;;8271702;28;21051;-76
2022/12/26 18:09:58;;;;;;;3.97;1.23;;;;;;;;;;8274435;28;20284;-76
2022/12/26 18:13:58;;;;;;;1.80;1.00;;;;;;;;;;8272692;28;20029;-76
2022/12/26 18:17:58;;;;;;;2.67;1.00;;;;;;;;;;8271642;28;21025;-76
2022/12/26 18:21:58;;;;;;;0.77;0.60;;;;;;;;;;8270561;28;20280;-77
2022/12/26 18:26:00;;;;;;;0.77;0.77;;;;;;;;;;8270235;28;21167;-76
2022/12/26 18:30:00;;;;;;;1.45;0.50;;;;;;;;;;8270751;28;20773;-76
2022/12/26 18:34:01;;;;;;;1.45;0.90;;;;;;;;;;8268314;28;20042;-77
2022/12/26 18:38:01;;;;;;;0.70;0.70;;;;;;;;;;8271891;28;20041;-76
2022/12/26 18:42:01;;;;;;;2.15;0.70;;;;;;;;;;8271422;28;20147;-76
2022/12/26 18:46:01;;;;;;;3.47;0.60;;;;;;;;;;8268890;28;20044;-75
2022/12/26 18:50:07;;;;;;;0.75;0.75;;;;;;;;;;8284340;28;20767;-76
2022/12/26 18:54:07;;;;;;;1.30;1.20;;;;;;;;;;8270303;28;20037;-76
2022/12/26 18:58:09;;;;;;;0.70;0.70;;;;;;;;;;8268543;28;20030;-76
2022/12/26 19:02:16;;;;;;;0.52;0.52;;;;;;;;;;8265911;28;20037;-76
2022/12/26 19:06:19;;;;;;;1.85;0.70;;;;;;;;;;8268962;28;20034;-76
2022/12/26 19:10:21;;;;;;;1.10;0.70;;;;;;;;;;8268848;28;20671;-77
2022/12/26 19:14:21;;;;;;;1.88;0.90;;;;;;;;;;8267684;28;20033;-77
2022/12/26 19:18:21;;;;;;;3.53;1.05;;;;;;;;;;8267780;28;20046;-76
2022/12/26 19:22:22;;;;;;;2.50;1.15;;;;;;;;;;8269061;28;20439;-76
2022/12/26 19:26:22;;;;;;;2.67;1.10;;;;;;;;;;8268065;28;20126;-76
2022/12/26 19:30:22;;;;;;;1.73;1.15;;;;;;;;;;8268980;28;21553;-76
2022/12/26 19:34:23;;;;;;;1.00;0.85;;;;;;;;;;8267792;28;20059;-76
2022/12/26 19:38:23;;;;;;;3.42;0.90;;;;;;;;;;8268872;28;20041;-76
2022/12/26 19:42:23;;;;;;;1.02;0.60;;;;;;;;;;8268749;28;20155;-77
2022/12/26 19:46:24;;;;;;;1.85;1.00;;;;;;;;;;8272336;28;20041;-75
2022/12/26 19:50:24;;;;;;;1.13;0.73;;;;;;;;;;8267690;28;20052;-76
2022/12/26 19:54:24;;;;;;;1.02;0.80;;;;;;;;;;8273225;28;20032;-75
2022/12/26 19:58:28;;;;;;;1.85;0.82;;;;;;;;;;8267995;28;20040;-76
2022/12/26 20:02:28;;;;;;;0.90;0.70;;;;;;;;;;8275767;28;20065;-75
2022/12/26 20:06:29;;;;;;;2.72;0.75;;;;;;;;;;8267474;28;20022;-77
2022/12/26 20:10:30;;;;;;;2.05;0.93;;;;;;;;;;8267912;28;20052;-76
2022/12/26 20:14:31;;;;;;;1.27;0.63;;;;;;;;;;8265914;28;20033;-78
2022/12/26 20:18:33;;;;;;;1.95;0.80;;;;;;;;;;8267088;28;20375;-75
2022/12/26 20:22:33;;;;;;;1.40;1.10;;;;;;;;;;8265560;28;20061;-76
2022/12/26 20:26:33;;;;;;;1.90;0.80;;;;;;;;;;8268470;28;20026;-76
2022/12/26 20:30:34;;;;;;;0.77;0.77;;;;;;;;;;8265808;28;20264;-76
2022/12/26 20:34:40;;;;;;;1.48;0.90;;;;;;;;;;8323710;28;20423;-61
2022/12/26 20:38:41;;;;;;;0.82;0.60;;;;;;;;;;8325990;28;20060;-61
2022/12/26 20:42:41;;;;;;;0.85;0.73;;;;;;;;;;8323365;28;20046;-61
2022/12/26 20:46:42;;;;;;;1.02;0.70;;;;;;;;;;8323234;28;20038;-61
2022/12/26 20:50:42;;;;;;;1.40;0.88;;;;;;;;;;8323462;28;20030;-61
2022/12/26 20:54:43;;;;;;;1.65;0.90;;;;;;;;;;8321126;28;20017;-61
2022/12/26 20:58:43;;;;;;;2.13;1.10;;;;;;;;;;8325187;28;20021;-61
2022/12/26 21:02:43;;;;;;;2.17;0.80;;;;;;;;;;8322262;28;20288;-61
2022/12/26 21:06:46;;;;;;;2.47;1.10;;;;;;;;;;8323601;28;20538;-61
2022/12/26 21:10:46;;;;;;;2.00;1.00;;;;;;;;;;8323161;28;20026;-61
2022/12/26 21:14:46;;;;;;;1.63;1.00;;;;;;;;;;8322399;28;20025;-61
2022/12/26 21:18:46;;;;;;;1.60;0.80;;;;;;;;;;8322666;28;20264;-61
2022/12/26 21:22:47;;;;;;;1.98;0.80;;;;;;;;;;8324734;28;20032;-61
2022/12/26 21:26:47;;;;;;;2.50;1.02;;;;;;;;;;8320375;28;20060;-61
2022/12/26 21:30:47;;;;;;;1.85;1.00;;;;;;;;;;8321519;28;20485;-61
2022/12/26 21:34:48;;;;;;;2.80;1.00;;;;;;;;;;8319625;28;21052;-61
2022/12/26 21:38:48;;;;;;;2.07;0.80;;;;;;;;;;8322190;28;20040;-61
2022/12/26 21:42:48;;;;;;;1.92;0.82;;;;;;;;;;8317225;28;20271;-63
2022/12/26 21:46:49;;;;;;;1.80;0.88;;;;;;;;;;8299157;28;20820;-63
2022/12/26 21:50:49;;;;;;;2.28;0.90;;;;;;;;;;8298971;28;20129;-64
2022/12/26 22:07:46;;;;;;;2.60;1.00;;;;;;;;;;8298136;28;20225;-63
2022/12/26 22:16:07;;;;;;;2.13;1.13;;;;;;;;;;8296865;28;20153;-63
2022/12/26 22:20:07;;;;;;;3.13;1.13;;;;;;;;;;8295006;28;20818;-63
2022/12/26 22:24:09;;;;;;;1.80;0.97;;;;;;;;;;8297725;28;21829;-63
2022/12/26 22:28:09;;;;;;;2.53;0.93;;;;;;;;;;8298896;28;20291;-63
2022/12/26 22:32:09;;;;;;;0.93;0.80;;;;;;;;;;8300656;28;20034;-63
2022/12/26 22:36:09;;;;;;;2.47;0.90;;;;;;;;;;8297368;28;20025;-63
2022/12/26 22:40:10;;;;;;;2.05;0.70;;;;;;;;;;8296257;28;20025;-63
2022/12/26 22:44:14;;;;;;;8.43;1.25;;;;;;;;;;8303293;28;20029;-62
2022/12/26 22:48:14;;;;;;;1.27;0.85;;;;;;;;;;8300601;28;20033;-62
2022/12/26 22:52:14;;;;;;;1.33;0.77;;;;;;;;;;8298963;28;20033;-63
2022/12/26 22:56:15;;;;;;;2.55;0.73;;;;;;;;;;8295431;28;20806;-62
2022/12/26 23:00:15;;;;;;;2.72;0.90;;;;;;;;;;8303213;28;20101;-63
2022/12/26 23:04:15;;;;;;;2.47;0.80;;;;;;;;;;8298895;28;20043;-63
2022/12/26 23:08:21;;;;;;;2.07;0.80;;;;;;;;;;8300405;28;20879;-63
2022/12/26 23:16:49;;;;;;;0.90;0.65;;;;;;;;;;8310427;28;20079;-63
2022/12/26 23:25:10;;;;;;;1.75;0.80;;;;;;;;;;8331234;28;20055;-63
2022/12/26 23:33:31;;;;;;;2.40;0.80;;;;;;;;;;8330391;28;20071;-63
2022/12/26 23:37:31;;;;;;;1.75;0.80;;;;;;;;;;8330520;28;20021;-63
2022/12/26 23:41:31;;;;;;;7.70;0.80;;;;;;;;;;8332160;28;20042;-62
2022/12/26 23:45:31;;;;;;;1.50;0.73;;;;;;;;;;8328521;28;20047;-62
2022/12/26 23:49:32;;;;;;;3.88;1.00;;;;;;;;;;8329513;28;20021;-62
2022/12/26 23:53:32;;;;;;;1.73;0.75;;;;;;;;;;8331272;28;20021;-62
2022/12/26 23:57:32;;;;;;;2.47;0.80;;;;;;;;;;8331424;28;20114;-62
